Občina Litija, Slovenia

03:17 AM CEST on april 30, 2017 (GMT +0200)
Kidričeva ulica | | Change Station

Viš 980 ft 46.13 °N, 14.56 °E | Updated 24 minutes ago

Jasno
Jasno
47.1 °F
Feels Like 47 °F
N
0.6
Veter Spremenljivo Veter od SZ
Gusts 1.9 mph

Danes
High -- | Low -- °F
--% Chance of Precip.
Yesterday
High -- | Low -- °F
Precip. -- v
Zračni tlak 30.06 v
Vidljivost 6.2 milje
Oblaki Few 6000 ft
Občutek zaradi vetra 47 °F
Rosišče 36 °F
Vlažnost 65%
Padavine 0.00 v
Snow Depth Not available.
5:49 AM 8:08 PM
Naraščajoči krajec, 18% visible
METAR LJLJ 300100Z VRB02KT 9999 FEW060 02/01 Q1018 NOSIG
Zračni tlak 30.06 v
Vidljivost 6.2 milje
Oblaki Few 6000 ft
Občutek zaradi vetra 47 °F
Rosišče 36 °F
Vlažnost 65%
Padavine 0.00 v
Snow Depth Not available.
5:49 AM 8:08 PM
Naraščajoči krajec, 18% visible
METAR LJLJ 300100Z VRB02KT 9999 FEW060 02/01 Q1018 NOSIG

Get Severe Weather Alerts

Thanks for signing up!

Be on the lookout for a verification email in your inbox.

You'll start receiving the daily forecast at 8 AM.

×

10-Day Weather Forecast

×

Almanac

Astronomija

Apr. 30, 2017 Rise Set
Actual Time
Civil Twilight
Nautical Twilight
Astronomical Twilight
Moon
Length Of Visible Light
Dolžina dneva
Tomorrow will be .
, % of the Moon is Illuminated

Današnji ekstremi

Country Highs Country Lows

Community

WunderPhotos

WunderBlog® & News

Nearby

Air Quality

  Air Quality AQ Index Pollutant
Not available.

Snow Depth

Station Depth Višina

Earthquake Activity

City Distance Mag. Time & Date
Minimum magnitude displayed is 2.5.

Coastal Water Temperatures

Mesto Temperatura

Stations

Nearby Weather Stations

Station Location Temp Občutek zaradi vetra Rosišče Vlažnost Veter Precip. Viš Obnovljeno Type